Time;durP1;ratioP1;P1;durP2;ratioP2;P2;SDS_P1;SDS_P2;PMS_P1;PMS_P2;Temp;Humidity;BMP_temperature;BMP_pressure;BME280_temperature;BME280_humidity;BME280_pressure;Samples;Min_cycle;Max_cycle;Signal;HPM_P1;HPM_P2
2022/02/04 00:24:05;;;;;;;19.50;13.25;;;8.30;99.90;;;;;;4095291;28;20030;-73
2022/02/04 00:26:23;;;;;;;20.02;13.25;;;8.20;99.90;;;;;;4119067;28;20046;-73
2022/02/04 00:30:30;;;;;;;18.70;12.60;;;8.30;99.90;;;;;;4125634;28;20508;-73
2022/02/04 00:32:33;;;;;;;20.25;13.20;;;8.30;99.90;;;;;;4118417;28;20043;-73
2022/02/04 00:34:41;;;;;;;19.55;12.38;;;8.30;99.90;;;;;;4122844;28;20034;-73
2022/02/04 00:38:46;;;;;;;19.67;13.32;;;8.30;99.90;;;;;;4107192;28;20097;-72
2022/02/04 00:40:54;;;;;;;19.95;12.60;;;8.30;99.90;;;;;;4119717;28;20030;-73
2022/02/04 00:42:59;;;;;;;17.65;12.45;;;8.30;99.90;;;;;;4117777;28;20405;-73
2022/02/04 00:45:14;;;;;;;18.80;13.27;;;8.30;99.90;;;;;;4122946;28;20030;-73
2022/02/04 00:47:19;;;;;;;18.40;12.38;;;8.30;99.90;;;;;;4111503;28;20424;-73
2022/02/04 00:49:30;;;;;;;19.05;12.25;;;8.30;99.90;;;;;;4119614;28;20023;-72
2022/02/04 00:51:53;;;;;;;18.73;12.43;;;8.30;99.90;;;;;;4121313;28;20121;-73
2022/02/04 00:54:13;;;;;;;;;;;8.30;99.90;;;;;;4103593;28;20091;-73
2022/02/04 01:26:25;;;;;;;22.35;13.30;;;8.20;99.90;;;;;;4123107;28;20034;-73
2022/02/04 01:28:26;;;;;;;20.08;13.30;;;8.20;99.90;;;;;;4121129;28;20168;-73
2022/02/04 01:30:32;;;;;;;18.02;11.77;;;8.20;99.90;;;;;;4122216;28;20149;-73
2022/02/04 01:32:34;;;;;;;21.90;13.20;;;8.20;99.90;;;;;;4102657;28;20027;-73
2022/02/04 01:34:35;;;;;;;17.20;12.20;;;8.20;99.90;;;;;;4118973;28;20506;-72
2022/02/04 01:36:35;;;;;;;20.35;12.93;;;8.20;99.90;;;;;;4104998;28;20058;-73
2022/02/04 01:38:36;;;;;;;17.50;11.40;;;8.20;99.90;;;;;;4123134;28;20403;-73
2022/02/04 01:40:36;;;;;;;17.10;11.25;;;8.20;99.90;;;;;;4120761;28;20038;-73
2022/02/04 01:42:37;;;;;;;18.20;11.48;;;8.20;99.90;;;;;;4121697;28;20126;-73
2022/02/04 01:44:38;;;;;;;18.98;11.25;;;8.20;99.90;;;;;;4116920;28;20055;-73
2022/02/04 01:46:38;;;;;;;18.05;11.95;;;8.20;99.90;;;;;;4103948;28;20035;-73
2022/02/04 01:48:40;;;;;;;17.45;11.40;;;8.20;99.90;;;;;;4123170;28;20034;-73
2022/02/04 01:50:41;;;;;;;17.70;10.97;;;8.10;99.90;;;;;;4103901;28;20146;-72
2022/02/04 01:52:42;;;;;;;16.42;11.20;;;8.20;99.90;;;;;;4103096;28;20027;-72
2022/02/04 01:54:42;;;;;;;16.67;10.82;;;8.20;99.90;;;;;;4105802;28;20035;-73
2022/02/04 01:56:43;;;;;;;17.52;10.10;;;8.20;99.90;;;;;;4120813;28;20034;-73
2022/02/04 01:58:44;;;;;;;20.33;11.38;;;8.20;99.90;;;;;;4115435;28;20051;-72
2022/02/04 02:00:44;;;;;;;16.63;11.02;;;8.20;99.90;;;;;;4121122;28;20037;-72
2022/02/04 02:02:45;;;;;;;17.30;11.07;;;8.20;99.90;;;;;;4122541;28;20495;-72
2022/02/04 02:04:46;;;;;;;16.95;10.27;;;8.10;99.90;;;;;;4118287;28;20479;-72
2022/02/04 02:06:54;;;;;;;17.73;11.40;;;8.20;99.90;;;;;;4121603;28;20030;-72
2022/02/04 02:08:55;;;;;;;17.90;11.05;;;8.20;99.90;;;;;;4125209;28;20046;-72
2022/02/04 02:10:56;;;;;;;18.40;10.90;;;8.20;99.90;;;;;;4104586;28;20532;-72
2022/02/04 02:34:09;;;;;;;15.63;9.38;;;8.20;99.90;;;;;;4121060;28;20031;-72
2022/02/04 02:36:38;;;;;;;15.48;9.07;;;8.20;99.90;;;;;;4121507;28;20042;-72
2022/02/04 02:47:33;;;;;;;12.35;8.10;;;8.20;99.90;;;;;;4117112;28;20038;-72
2022/02/04 02:52:04;;;;;;;11.77;8.15;;;8.20;99.90;;;;;;4120584;28;20026;-72
2022/02/04 02:59:25;;;;;;;13.57;8.65;;;8.20;99.90;;;;;;4127181;28;20030;-72
2022/02/04 03:01:27;;;;;;;10.68;7.72;;;8.20;99.90;;;;;;4126343;28;20203;-73
2022/02/04 03:03:31;;;;;;;11.38;7.70;;;8.20;99.90;;;;;;4121830;28;20076;-72
2022/02/04 03:05:32;;;;;;;11.60;7.93;;;8.20;99.90;;;;;;4122661;28;20030;-72
2022/02/04 03:07:32;;;;;;;11.73;7.28;;;8.20;99.90;;;;;;4122254;28;20711;-73
2022/02/04 03:09:33;;;;;;;12.60;7.82;;;8.20;99.90;;;;;;4123149;28;20069;-73
2022/02/04 03:11:34;;;;;;;11.98;7.68;;;8.20;99.90;;;;;;4119801;28;20026;-73
2022/02/04 03:13:35;;;;;;;12.48;8.07;;;8.20;99.90;;;;;;4111089;28;20030;-73
2022/02/04 03:15:36;;;;;;;9.82;6.93;;;8.20;99.90;;;;;;4120372;28;20458;-73
2022/02/04 03:17:39;;;;;;;12.25;7.55;;;8.30;99.90;;;;;;4124058;28;20078;-73
2022/02/04 03:19:43;;;;;;;;;;;8.30;99.90;;;;;;4123156;28;20415;-73
2022/02/04 03:21:46;;;;;;;11.52;7.57;;;8.30;99.90;;;;;;4123192;28;20008;-73
2022/02/04 03:24:01;;;;;;;9.65;7.05;;;8.30;99.90;;;;;;4124546;28;20069;-73
2022/02/04 03:26:09;;;;;;;9.50;6.57;;;8.30;99.90;;;;;;4122782;28;20484;-73
2022/02/04 03:28:15;;;;;;;10.70;7.13;;;8.40;99.90;;;;;;4120567;28;20042;-73
2022/02/04 03:30:26;;;;;;;10.30;6.80;;;8.40;99.90;;;;;;4122383;28;20483;-73
2022/02/04 03:32:26;;;;;;;11.07;7.40;;;8.40;99.90;;;;;;4126617;28;20414;-73
2022/02/04 03:34:27;;;;;;;10.85;7.32;;;8.40;99.90;;;;;;4103969;28;20042;-73
2022/02/04 03:36:27;;;;;;;10.32;6.97;;;8.40;99.90;;;;;;4122103;28;20038;-73
2022/02/04 03:38:28;;;;;;;11.73;7.45;;;8.40;99.90;;;;;;4101424;28;20436;-73
2022/02/04 03:40:29;;;;;;;10.68;7.03;;;8.40;99.90;;;;;;4121923;28;20038;-73
2022/02/04 03:42:29;;;;;;;10.18;7.28;;;8.40;99.90;;;;;;4122384;28;20029;-73
2022/02/04 03:44:32;;;;;;;10.93;7.03;;;8.40;99.90;;;;;;4103366;28;20042;-73
2022/02/04 03:46:33;;;;;;;10.32;7.35;;;8.40;99.90;;;;;;4122213;28;20498;-73
2022/02/04 03:48:34;;;;;;;10.55;7.00;;;8.40;99.90;;;;;;4120286;28;20070;-73
2022/02/04 03:50:35;;;;;;;10.43;7.50;;;8.40;99.90;;;;;;4124537;28;20030;-73
2022/02/04 03:52:38;;;;;;;11.52;7.25;;;8.40;99.90;;;;;;4103688;28;20039;-73
2022/02/04 03:54:39;;;;;;;10.82;7.03;;;8.40;99.90;;;;;;4119555;28;20113;-73
2022/02/04 03:56:39;;;;;;;11.77;7.13;;;8.40;99.90;;;;;;4121825;28;20510;-73
2022/02/04 03:58:42;;;;;;;13.38;7.53;;;8.50;99.90;;;;;;4124987;28;20431;-73
2022/02/04 04:00:42;;;;;;;10.93;6.95;;;8.40;99.90;;;;;;4126108;28;20038;-73
2022/02/04 04:02:44;;;;;;;13.38;7.40;;;8.40;99.90;;;;;;4123526;28;20061;-73
2022/02/04 04:04:45;;;;;;;13.03;7.63;;;8.50;99.90;;;;;;4123057;28;20038;-73
2022/02/04 04:06:47;;;;;;;11.20;7.70;;;8.40;99.90;;;;;;4104026;28;20282;-73
2022/02/04 04:08:52;;;;;;;12.95;8.45;;;8.50;99.90;;;;;;4117943;28;20311;-73
2022/02/04 04:10:53;;;;;;;12.48;8.15;;;8.50;99.90;;;;;;4118259;28;20054;-72
2022/02/04 04:12:57;;;;;;;10.50;7.20;;;8.40;99.90;;;;;;4086965;29;20055;-73
2022/02/04 04:15:04;;;;;;;13.05;7.57;;;8.40;99.90;;;;;;4110249;28;20501;-73
2022/02/04 04:17:05;;;;;;;9.95;6.82;;;8.50;99.90;;;;;;4105646;28;20559;-73
2022/02/04 04:19:06;;;;;;;12.13;7.75;;;8.40;99.90;;;;;;4116902;28;20039;-72
2022/02/04 04:21:06;;;;;;;13.45;8.88;;;8.40;99.90;;;;;;4120060;28;20062;-73
2022/02/04 04:23:07;;;;;;;12.05;7.85;;;8.40;99.90;;;;;;4123349;28;20089;-73
2022/02/04 04:25:08;;;;;;;11.45;7.95;;;8.40;99.90;;;;;;4115533;28;20053;-73
2022/02/04 04:27:09;;;;;;;11.82;7.70;;;8.40;99.90;;;;;;4102910;28;20043;-73
2022/02/04 04:29:10;;;;;;;10.88;6.90;;;8.40;99.90;;;;;;4120462;28;20399;-72
2022/02/04 04:31:10;;;;;;;11.70;7.32;;;8.40;99.90;;;;;;4119044;28;20583;-72
2022/02/04 04:33:11;;;;;;;12.70;7.82;;;8.40;99.90;;;;;;4121913;28;20038;-73
2022/02/04 04:35:15;;;;;;;11.48;6.57;;;8.40;99.90;;;;;;4119823;28;20045;-72
2022/02/04 04:37:16;;;;;;;9.55;6.55;;;8.40;99.90;;;;;;4105149;28;20046;-73
2022/02/04 04:39:31;;;;;;;10.15;7.13;;;8.40;99.90;;;;;;4119880;28;20042;-73
2022/02/04 04:46:12;;;;;;;14.48;9.00;;;8.40;99.90;;;;;;4115446;28;20042;-73
2022/02/04 05:29:50;;;;;;;8.13;5.72;;;8.30;99.90;;;;;;4116380;28;20034;-72
2022/02/04 05:31:51;;;;;;;9.45;6.28;;;8.30;99.90;;;;;;4122079;28;20075;-72
2022/02/04 05:33:52;;;;;;;10.43;6.53;;;8.30;99.90;;;;;;4120030;28;20027;-72
2022/02/04 05:35:52;;;;;;;10.18;6.40;;;8.30;99.90;;;;;;4121857;28;20506;-72
2022/02/04 05:37:53;;;;;;;9.65;5.93;;;8.30;99.90;;;;;;4118830;28;20033;-73
2022/02/04 05:40:00;;;;;;;8.85;5.72;;;8.30;99.90;;;;;;4117760;28;20039;-73
2022/02/04 05:42:03;;;;;;;8.55;5.95;;;8.30;99.90;;;;;;4122996;28;20065;-73
2022/02/04 05:44:09;;;;;;;10.48;5.80;;;8.30;99.90;;;;;;4122904;28;20090;-73
2022/02/04 05:46:19;;;;;;;9.63;6.32;;;8.30;99.90;;;;;;4117151;28;20534;-73
2022/02/04 05:48:20;;;;;;;7.85;5.55;;;8.30;99.90;;;;;;4124436;28;20121;-73
2022/02/04 05:50:57;;;;;;;11.02;5.68;;;8.40;99.90;;;;;;4103836;28;20079;-73
2022/02/04 05:55:15;;;;;;;8.88;5.80;;;8.40;99.90;;;;;;4117217;28;20566;-73
2022/02/04 05:57:25;;;;;;;8.05;5.70;;;8.30;99.90;;;;;;4105020;28;20043;-73
2022/02/04 05:59:47;;;;;;;7.90;5.57;;;8.40;99.90;;;;;;4122233;28;20022;-73
2022/02/04 06:04:21;;;;;;;9.30;5.35;;;8.40;99.90;;;;;;4119525;28;20057;-73
2022/02/04 06:24:12;;;;;;;7.18;5.18;;;8.40;99.90;;;;;;4116194;28;20050;-73
2022/02/04 06:26:13;;;;;;;6.75;4.75;;;8.40;99.90;;;;;;4116549;28;20192;-73
2022/02/04 06:28:17;;;;;;;8.15;5.20;;;8.40;99.90;;;;;;4123423;28;20073;-73
2022/02/04 06:30:18;;;;;;;8.13;5.22;;;8.40;99.90;;;;;;4103315;28;20055;-73
2022/02/04 06:32:20;;;;;;;6.18;4.30;;;8.40;99.90;;;;;;4117436;28;20034;-73
2022/02/04 06:34:21;;;;;;;8.82;4.63;;;8.40;99.90;;;;;;4122408;28;20050;-73
2022/02/04 06:36:22;;;;;;;29.42;17.88;;;8.40;99.90;;;;;;4119979;28;20043;-73
2022/02/04 06:38:22;;;;;;;9.52;6.20;;;8.50;99.90;;;;;;4103305;28;20217;-73
2022/02/04 06:40:23;;;;;;;9.60;5.25;;;8.40;99.90;;;;;;4104698;28;20181;-73
2022/02/04 06:42:25;;;;;;;7.47;4.95;;;8.40;99.90;;;;;;4117421;28;20122;-73
2022/02/04 06:44:26;;;;;;;8.05;5.30;;;8.40;99.90;;;;;;4119127;28;20372;-73
2022/02/04 06:46:27;;;;;;;12.10;5.05;;;8.40;99.90;;;;;;4120283;28;20093;-73
2022/02/04 06:48:27;;;;;;;8.43;5.10;;;8.40;99.90;;;;;;4118396;28;20066;-73
2022/02/04 06:50:28;;;;;;;6.90;4.63;;;8.50;99.90;;;;;;4100715;28;20123;-73
2022/02/04 06:52:29;;;;;;;5.38;3.97;;;8.40;99.90;;;;;;4117664;28;20023;-73
2022/02/04 06:54:30;;;;;;;6.95;4.20;;;8.50;99.90;;;;;;4118771;28;20035;-73
2022/02/04 06:56:34;;;;;;;7.32;4.57;;;8.50;99.90;;;;;;4101010;28;20046;-73
2022/02/04 06:58:34;;;;;;;6.80;3.85;;;8.50;99.90;;;;;;4119532;28;20094;-73
2022/02/04 07:00:35;;;;;;;8.07;4.50;;;8.50;99.90;;;;;;4117661;28;20051;-73
2022/02/04 07:02:36;;;;;;;5.70;3.70;;;8.50;99.90;;;;;;4115304;28;20035;-73
2022/02/04 07:04:37;;;;;;;6.80;4.38;;;8.50;99.90;;;;;;4111503;28;20034;-73
2022/02/04 07:06:41;;;;;;;5.95;4.03;;;8.50;99.90;;;;;;4103091;28;20062;-73
2022/02/04 07:13:02;;;;;;;7.50;3.63;;;8.60;99.90;;;;;;4121405;28;20044;-73
2022/02/04 07:17:37;;;;;;;4.90;3.08;;;8.60;99.90;;;;;;4118662;28;20042;-73
2022/02/04 07:21:47;;;;;;;4.97;3.45;;;8.60;99.90;;;;;;4117988;28;20427;-73
2022/02/04 07:23:47;;;;;;;4.78;3.25;;;8.60;99.90;;;;;;4120255;28;20042;-73
2022/02/04 07:25:48;;;;;;;5.30;3.10;;;8.60;99.90;;;;;;4117375;28;20069;-73
2022/02/04 07:27:48;;;;;;;8.02;3.35;;;8.60;99.90;;;;;;4119997;28;20058;-73
2022/02/04 07:29:52;;;;;;;5.28;3.45;;;8.60;99.90;;;;;;4119982;28;20038;-73
2022/02/04 07:31:53;;;;;;;7.43;3.00;;;8.60;99.90;;;;;;4118867;28;20033;-73
2022/02/04 07:34:09;;;;;;;6.78;3.55;;;8.60;99.90;;;;;;4100537;28;20046;-73
2022/02/04 07:42:52;;;;;;;6.65;4.10;;;8.60;99.90;;;;;;4119682;28;20036;-73
2022/02/04 07:44:52;;;;;;;6.05;4.40;;;8.60;99.90;;;;;;4119101;28;20496;-73
2022/02/04 07:46:53;;;;;;;5.70;4.00;;;8.60;99.90;;;;;;4109896;28;20050;-73
2022/02/04 07:48:53;;;;;;;7.03;4.65;;;8.60;99.90;;;;;;4115378;28;20432;-73
2022/02/04 07:50:54;;;;;;;6.30;4.75;;;8.60;99.90;;;;;;4116445;28;20411;-73
2022/02/04 07:52:56;;;;;;;7.03;4.03;;;8.60;99.90;;;;;;4098572;28;20516;-73
2022/02/04 07:54:56;;;;;;;7.55;4.43;;;8.50;99.90;;;;;;4115640;28;20048;-73
2022/02/04 07:56:57;;;;;;;6.03;4.32;;;8.50;99.90;;;;;;4116411;28;20478;-73
2022/02/04 07:59:00;;;;;;;6.85;4.97;;;8.50;99.90;;;;;;4101133;28;20567;-73
2022/02/04 08:01:02;;;;;;;;;;;8.50;99.90;;;;;;4116777;28;20118;-73
2022/02/04 08:03:13;;;;;;;8.07;4.53;;;8.50;99.90;;;;;;4116943;28;19910;-73
2022/02/04 08:05:18;;;;;;;5.65;3.97;;;8.60;99.90;;;;;;4117147;28;20047;-73
2022/02/04 08:07:19;;;;;;;6.47;3.90;;;8.50;99.90;;;;;;4101572;28;20043;-73
2022/02/04 08:11:28;;;;;;;6.72;4.28;;;8.60;99.90;;;;;;4100868;28;20039;-73
2022/02/04 08:16:06;;;;;;;5.15;4.10;;;8.60;99.90;;;;;;4119306;28;20426;-73
2022/02/04 08:27:00;;;;;;;6.97;4.90;;;8.60;99.90;;;;;;4116767;28;20089;-73
2022/02/04 08:48:58;;;;;;;7.05;4.82;;;8.40;99.90;;;;;;4116183;28;20049;-73
2022/02/04 08:55:11;;;;;;;7.32;4.45;;;8.40;99.90;;;;;;4114408;28;20037;-73
2022/02/04 08:57:25;;;;;;;6.80;4.47;;;8.40;99.90;;;;;;4114411;28;20038;-73
2022/02/04 09:01:52;;;;;;;7.22;4.28;;;8.40;99.90;;;;;;4116311;28;20484;-73
2022/02/04 09:04:04;;;;;;;7.60;4.07;;;8.40;99.90;;;;;;4112324;28;20096;-73
2022/02/04 09:06:12;;;;;;;6.93;4.38;;;8.50;99.90;;;;;;4116318;28;20087;-73
2022/02/04 09:10:15;;;;;;;5.35;3.72;;;8.40;99.90;;;;;;4114895;28;20065;-73
2022/02/04 09:19:02;;;;;;;4.82;3.58;;;8.50;99.90;;;;;;4117164;28;20100;-73
2022/02/04 09:23:08;;;;;;;6.15;3.88;;;8.50;99.90;;;;;;4119530;28;20033;-73
2022/02/04 09:25:10;;;;;;;;;;;8.50;99.90;;;;;;4117113;28;20050;-73
2022/02/04 09:27:11;;;;;;;6.15;3.97;;;8.50;99.90;;;;;;4116349;28;20515;-73
2022/02/04 09:29:12;;;;;;;4.38;3.55;;;8.50;99.90;;;;;;4117869;28;20031;-73
2022/02/04 09:31:12;;;;;;;5.68;4.00;;;8.50;99.90;;;;;;4098222;28;20105;-73
2022/02/04 09:33:13;;;;;;;4.65;3.53;;;8.50;99.90;;;;;;4118731;28;20507;-73
2022/02/04 09:35:19;;;;;;;5.32;3.53;;;8.50;99.90;;;;;;4116253;28;20050;-73
2022/02/04 09:37:20;;;;;;;5.15;3.72;;;8.60;99.90;;;;;;4116576;28;20114;-73
2022/02/04 09:39:20;;;;;;;5.07;3.70;;;8.60;99.90;;;;;;4117300;28;20039;-73
2022/02/04 09:41:21;;;;;;;5.82;3.60;;;8.60;99.90;;;;;;4115095;28;20035;-73
2022/02/04 09:43:22;;;;;;;5.85;3.53;;;8.50;99.90;;;;;;4117563;28;20488;-73
2022/02/04 09:45:24;;;;;;;4.30;3.28;;;8.60;99.90;;;;;;4099804;28;20050;-73
2022/02/04 09:47:33;;;;;;;4.55;3.75;;;8.60;99.90;;;;;;4116186;28;20507;-73
2022/02/04 09:49:40;;;;;;;6.13;3.63;;;8.60;99.90;;;;;;4115412;28;20031;-73
2022/02/04 10:04:19;;;;;;;5.22;3.78;;;8.60;99.90;;;;;;4113837;28;20460;-73
2022/02/04 10:08:20;;;;;;;6.03;3.88;;;8.80;99.90;;;;;;4116970;28;22027;-73
2022/02/04 10:15:00;;;;;;;7.60;3.40;;;8.80;99.90;;;;;;4118024;28;20522;-73
2022/02/04 10:17:21;;;;;;;3.60;2.88;;;8.80;99.90;;;;;;4118273;28;20114;-73
2022/02/04 10:20:10;;;;;;;3.97;3.17;;;8.80;99.90;;;;;;4103593;28;20050;-73
2022/02/04 10:21:53;;;;;;;5.78;3.10;;;8.80;99.90;;;;;;4119177;28;20078;-73
2022/02/04 10:23:59;;;;;;;3.92;2.80;;;8.90;99.90;;;;;;4118082;28;20046;-73
2022/02/04 10:26:08;;;;;;;4.85;2.97;;;8.90;99.90;;;;;;4117551;28;20129;-73
2022/02/04 10:28:32;;;;;;;4.45;2.85;;;8.90;99.90;;;;;;4102325;28;20035;-73
2022/02/04 10:30:34;;;;;;;3.65;2.75;;;9.00;99.90;;;;;;4119517;28;20507;-73
2022/02/04 10:32:40;;;;;;;3.63;2.67;;;9.00;99.90;;;;;;4104995;28;20403;-73
2022/02/04 10:34:43;;;;;;;2.95;2.40;;;9.00;99.90;;;;;;4118327;28;20041;-73
2022/02/04 10:36:57;;;;;;;5.82;2.42;;;9.00;99.90;;;;;;4120633;28;20031;-73
2022/02/04 10:38:58;;;;;;;3.78;2.25;;;9.00;99.90;;;;;;4120273;28;20391;-73
2022/02/04 10:46:18;;;;;;;3.27;2.23;;;9.10;99.90;;;;;;4120872;28;20391;-73
2022/02/04 10:53:31;;;;;;;2.40;1.80;;;9.10;99.90;;;;;;4120666;28;20034;-73
2022/02/04 10:57:44;;;;;;;3.08;2.17;;;9.20;99.90;;;;;;4110623;28;20035;-73
2022/02/04 11:04:12;;;;;;;4.82;1.88;;;9.20;99.90;;;;;;4118518;28;20039;-73
2022/02/04 11:06:30;;;;;;;3.67;1.77;;;9.20;99.90;;;;;;4115611;28;20057;-73
2022/02/04 11:11:48;;;;;;;2.75;2.10;;;9.30;99.90;;;;;;4119103;28;20517;-73
2022/02/04 11:34:40;;;;;;;3.10;2.45;;;9.30;99.90;;;;;;4076062;28;20041;-73
2022/02/04 11:51:13;;;;;;;2.47;1.98;;;9.40;99.90;;;;;;4116775;28;20399;-73
2022/02/04 11:53:56;;;;;;;1.60;1.25;;;9.50;99.90;;;;;;4116045;28;20161;-73
2022/02/04 11:55:59;;;;;;;2.33;1.77;;;9.50;99.90;;;;;;4116553;28;20038;-73
2022/02/04 11:58:03;;;;;;;2.47;1.40;;;9.40;99.90;;;;;;4102567;28;20050;-73
2022/02/04 12:00:16;;;;;;;2.88;1.90;;;9.50;99.90;;;;;;4085379;29;20487;-73
2022/02/04 12:02:26;;;;;;;2.03;1.58;;;9.40;99.90;;;;;;4108176;28;20098;-73
2022/02/04 12:04:27;;;;;;;1.92;1.58;;;9.50;99.90;;;;;;4119349;28;20137;-73
2022/02/04 12:06:29;;;;;;;2.15;1.70;;;9.40;99.90;;;;;;4100817;28;20579;-73
2022/02/04 12:08:31;;;;;;;2.00;1.30;;;9.40;99.90;;;;;;4120390;28;20509;-73
2022/02/04 12:10:41;;;;;;;1.88;1.67;;;9.50;99.90;;;;;;4120470;28;20049;-73
2022/02/04 12:12:58;;;;;;;2.08;1.58;;;9.50;99.90;;;;;;4118921;28;20048;-73
2022/02/04 12:15:31;;;;;;;2.97;1.80;;;9.50;99.90;;;;;;4119749;28;20042;-73
2022/02/04 12:17:38;;;;;;;2.97;1.92;;;9.60;99.90;;;;;;4102866;28;20043;-73
2022/02/04 12:19:44;;;;;;;4.13;2.63;;;9.50;99.90;;;;;;4117111;28;20026;-73
2022/02/04 12:21:46;;;;;;;3.22;2.55;;;9.50;99.90;;;;;;4100254;28;20466;-73
2022/02/04 12:23:49;;;;;;;3.35;2.25;;;9.60;99.90;;;;;;4119085;28;20406;-73
2022/02/04 12:25:57;;;;;;;3.65;2.15;;;9.50;99.90;;;;;;4118814;28;20046;-73
2022/02/04 12:28:00;;;;;;;4.47;2.47;;;9.60;99.90;;;;;;4116912;28;20042;-73
2022/02/04 12:30:50;;;;;;;3.22;2.28;;;9.50;99.90;;;;;;4116330;28;20027;-73
2022/02/04 12:32:51;;;;;;;2.55;2.20;;;9.50;99.90;;;;;;4103333;28;20077;-73
2022/02/04 12:34:51;;;;;;;3.58;2.65;;;9.50;99.90;;;;;;4115275;28;20030;-73
2022/02/04 12:36:54;;;;;;;3.60;2.60;;;9.50;99.90;;;;;;4116747;28;20039;-73
2022/02/04 12:38:58;;;;;;;;;;;9.40;99.90;;;;;;4086399;29;20123;-73
2022/02/04 12:40:59;;;;;;;5.60;2.30;;;9.40;99.90;;;;;;4103470;28;19910;-73
2022/02/04 12:43:00;;;;;;;3.45;2.33;;;9.40;99.90;;;;;;4116456;28;20118;-73
2022/02/04 12:45:05;;;;;;;2.83;2.00;;;9.30;99.90;;;;;;4116519;28;20395;-73
2022/02/04 12:47:20;;;;;;;3.10;2.25;;;9.30;99.90;;;;;;4116186;28;20061;-73
2022/02/04 12:49:23;;;;;;;3.75;2.33;;;9.30;99.90;;;;;;4102039;28;20047;-73
2022/02/04 12:51:41;;;;;;;3.55;2.60;;;9.30;99.90;;;;;;4118983;28;20125;-73
2022/02/04 12:53:47;;;;;;;3.13;2.25;;;9.30;99.90;;;;;;4116513;28;20041;-73
2022/02/04 12:56:21;;;;;;;3.88;2.35;;;9.30;99.90;;;;;;4115243;28;20035;-73
2022/02/04 12:58:42;;;;;;;3.10;2.20;;;9.30;99.90;;;;;;4117256;28;20487;-73
2022/02/04 13:09:51;;;;;;;4.50;3.25;;;9.40;99.90;;;;;;4119329;28;20089;-73
2022/02/04 13:12:04;;;;;;;4.25;3.22;;;9.40;99.90;;;;;;4118130;28;20094;-73
2022/02/04 13:14:04;;;;;;;7.07;2.92;;;9.50;99.90;;;;;;4120820;28;20085;-73
2022/02/04 13:16:09;;;;;;;4.43;3.10;;;9.50;99.90;;;;;;4119650;28;20042;-73
2022/02/04 13:18:12;;;;;;;3.67;2.83;;;9.50;99.90;;;;;;4115632;28;20487;-73
2022/02/04 13:20:21;;;;;;;3.50;2.60;;;9.50;99.90;;;;;;4117311;28;20085;-73
2022/02/04 13:22:22;;;;;;;3.47;2.40;;;9.50;99.90;;;;;;4101281;28;20043;-73
2022/02/04 13:24:22;;;;;;;4.05;2.90;;;9.60;99.90;;;;;;4117386;28;20082;-73
2022/02/04 13:26:24;;;;;;;5.03;2.60;;;9.60;99.90;;;;;;4119511;28;20034;-73
2022/02/04 13:28:33;;;;;;;5.50;3.10;;;9.70;99.90;;;;;;4120151;28;20040;-73
2022/02/04 13:31:03;;;;;;;4.65;2.75;;;9.70;99.90;;;;;;4098382;28;20334;-73
2022/02/04 13:33:15;;;;;;;4.97;2.72;;;9.70;99.90;;;;;;4120505;28;20406;-73
2022/02/04 13:35:25;;;;;;;3.15;2.50;;;9.70;99.90;;;;;;4116007;28;20058;-73
2022/02/04 13:37:31;;;;;;;5.90;2.97;;;9.80;99.90;;;;;;4093753;28;20136;-73
2022/02/04 13:40:01;;;;;;;5.45;2.88;;;9.80;99.90;;;;;;4108335;28;20039;-73
2022/02/04 13:46:45;;;;;;;4.05;2.63;;;9.70;99.90;;;;;;4117169;28;20046;-73
2022/02/04 13:52:01;;;;;;;3.42;2.40;;;9.70;99.90;;;;;;4115571;28;20053;-73
2022/02/04 13:56:41;;;;;;;7.15;3.17;;;9.70;99.90;;;;;;4117742;28;20001;-74
2022/02/04 13:58:53;;;;;;;4.60;2.60;;;9.70;99.90;;;;;;4117991;28;20061;-73
2022/02/04 14:03:13;;;;;;;3.58;2.47;;;9.70;99.90;;;;;;4116833;28;20042;-73
2022/02/04 14:05:28;;;;;;;3.30;2.28;;;9.80;99.90;;;;;;4117255;28;20039;-73
2022/02/04 14:07:37;;;;;;;5.35;2.58;;;9.70;99.90;;;;;;4100067;28;20126;-73
2022/02/04 14:09:45;;;;;;;6.15;2.95;;;9.70;99.90;;;;;;4098659;28;20061;-73
2022/02/04 14:11:45;;;;;;;3.78;2.70;;;9.70;99.90;;;;;;4115905;28;20034;-73
2022/02/04 14:13:53;;;;;;;4.40;2.72;;;9.70;99.90;;;;;;4116453;28;20039;-73
2022/02/04 14:15:58;;;;;;;3.45;2.40;;;9.70;99.90;;;;;;4099800;28;20593;-73
2022/02/04 14:18:09;;;;;;;5.85;2.47;;;9.80;99.90;;;;;;4117529;28;20039;-73
2022/02/04 14:20:11;;;;;;;4.03;2.50;;;9.70;99.90;;;;;;4112856;28;20081;-73
2022/02/04 14:22:12;;;;;;;4.88;2.50;;;9.70;99.90;;;;;;4117404;28;20057;-73
2022/02/04 14:24:14;;;;;;;3.97;2.63;;;9.70;99.90;;;;;;4117706;28;20043;-73
2022/02/04 14:26:24;;;;;;;4.63;2.40;;;9.60;99.90;;;;;;4116776;28;20496;-73
2022/02/04 14:28:37;;;;;;;4.65;2.40;;;9.60;99.90;;;;;;4118820;28;20349;-73
2022/02/04 14:30:38;;;;;;;2.92;2.17;;;9.60;99.90;;;;;;4118000;28;20395;-73
2022/02/04 14:32:50;;;;;;;4.07;2.30;;;9.60;99.90;;;;;;4098947;28;20034;-73
2022/02/04 14:35:01;;;;;;;3.65;2.25;;;9.60;99.90;;;;;;4118241;28;20101;-73
2022/02/04 14:37:37;;;;;;;3.60;2.35;;;9.40;99.90;;;;;;4116563;28;20491;-73
2022/02/04 14:51:24;;;;;;;5.35;2.30;;;9.40;99.90;;;;;;4115738;28;20039;-73
2022/02/04 15:00:35;;;;;;;5.43;2.33;;;9.30;99.90;;;;;;4120824;28;20050;-73
2022/02/04 15:05:08;;;;;;;11.27;2.60;;;9.30;99.90;;;;;;4106431;28;20042;-73
2022/02/04 15:07:10;;;;;;;6.78;2.53;;;9.20;99.90;;;;;;4115671;28;20043;-72
2022/02/04 15:09:13;;;;;;;5.43;2.33;;;9.20;99.90;;;;;;4118225;28;20031;-73
2022/02/04 15:11:16;;;;;;;3.38;2.05;;;9.10;99.90;;;;;;4119416;28;20050;-73
2022/02/04 15:13:18;;;;;;;3.85;2.33;;;9.20;99.90;;;;;;4101879;28;20051;-73
2022/02/04 15:15:19;;;;;;;7.90;2.60;;;9.10;99.90;;;;;;4098676;28;20034;-73
2022/02/04 15:17:20;;;;;;;4.57;2.03;;;9.00;99.90;;;;;;4108086;28;20049;-73
2022/02/04 15:19:21;;;;;;;5.35;2.08;;;9.00;99.90;;;;;;4121106;28;20109;-73
2022/02/04 15:21:23;;;;;;;5.07;2.92;;;9.00;99.90;;;;;;4119936;28;20050;-73
2022/02/04 15:23:24;;;;;;;6.60;2.67;;;8.90;99.90;;;;;;4122142;28;20142;-73
2022/02/04 15:25:24;;;;;;;3.83;1.75;;;8.90;99.90;;;;;;4108513;28;20074;-73
2022/02/04 15:27:27;;;;;;;3.88;2.17;;;8.90;99.90;;;;;;4117574;28;20034;-73
2022/02/04 15:29:29;;;;;;;6.68;2.58;;;8.90;99.90;;;;;;4088067;29;20146;-73
2022/02/04 15:31:42;;;;;;;4.78;2.08;;;8.90;99.90;;;;;;4119699;28;20116;-73
2022/02/04 15:33:45;;;;;;;5.82;2.13;;;8.80;99.90;;;;;;4120104;28;20040;-73
2022/02/04 15:35:45;;;;;;;;;;;8.80;99.90;;;;;;4116967;28;20031;-73
2022/02/04 15:37:46;;;;;;;3.03;2.22;;;8.80;99.90;;;;;;4106869;28;19961;-73
2022/02/04 15:39:46;;;;;;;5.65;2.05;;;8.70;99.90;;;;;;4119228;28;20042;-73
2022/02/04 15:41:51;;;;;;;3.38;2.10;;;8.70;99.90;;;;;;4103623;28;20086;-72
2022/02/04 15:43:56;;;;;;;4.05;2.40;;;8.70;99.90;;;;;;4119779;28;20551;-72
2022/02/04 15:46:33;;;;;;;5.00;2.17;;;8.60;99.90;;;;;;4119675;28;20034;-72
2022/02/04 15:55:45;;;;;;;5.45;2.75;;;8.60;99.90;;;;;;4121632;28;20070;-73
2022/02/04 15:58:16;;;;;;;3.50;2.13;;;8.60;99.90;;;;;;4118124;28;20046;-73
2022/02/04 16:01:13;;;;;;;4.63;2.05;;;8.60;99.90;;;;;;4120748;28;20394;-73
2022/02/04 16:04:58;;;;;;;6.68;2.35;;;8.60;99.90;;;;;;4121792;28;20077;-72
2022/02/04 16:06:59;;;;;;;5.43;2.50;;;8.60;99.90;;;;;;4118123;28;20495;-73
2022/02/04 16:08:59;;;;;;;4.70;2.10;;;8.60;99.90;;;;;;4120705;28;20042;-73
2022/02/04 16:11:13;;;;;;;6.30;3.25;;;8.60;99.90;;;;;;4116540;28;20770;-73
2022/02/04 16:13:27;;;;;;;10.77;3.40;;;8.60;99.90;;;;;;4088185;29;20031;-72
2022/02/04 16:17:38;;;;;;;2.90;1.50;;;8.30;99.90;;;;;;4118293;28;20100;-72
2022/02/04 16:19:45;;;;;;;1.83;0.90;;;8.00;99.90;;;;;;4119724;28;20050;-72
2022/02/04 16:26:35;;;;;;;2.28;0.70;;;7.00;99.90;;;;;;4116700;28;20089;-71
2022/02/04 16:30:39;;;;;;;0.80;0.60;;;6.80;99.90;;;;;;4116896;28;20088;-71
2022/02/04 16:32:39;;;;;;;1.90;0.73;;;6.70;99.90;;;;;;4115123;28;20083;-71
2022/02/04 16:34:42;;;;;;;0.60;0.60;;;6.60;99.90;;;;;;4115106;28;20484;-71
2022/02/04 16:36:45;;;;;;;1.00;0.68;;;6.40;99.90;;;;;;4119328;28;20603;-71
2022/02/04 16:38:53;;;;;;;0.95;0.50;;;6.30;99.90;;;;;;4115826;28;20431;-71
2022/02/04 16:40:56;;;;;;;1.23;0.88;;;6.20;99.90;;;;;;4084976;29;20556;-71
2022/02/04 16:42:57;;;;;;;0.68;0.50;;;6.10;99.90;;;;;;4117532;28;20043;-71
2022/02/04 16:44:58;;;;;;;1.02;0.60;;;6.00;99.90;;;;;;4117966;28;20415;-72
2022/02/04 16:47:00;;;;;;;2.65;0.73;;;6.00;99.90;;;;;;4118421;28;20475;-72
2022/02/04 16:49:00;;;;;;;0.90;0.90;;;5.90;99.90;;;;;;4118496;28;20045;-71
2022/02/04 16:51:04;;;;;;;2.83;1.17;;;5.90;99.90;;;;;;4117718;28;20467;-71
2022/02/04 16:53:05;;;;;;;1.10;1.00;;;5.90;99.90;;;;;;4120581;28;20427;-71
2022/02/04 16:55:06;;;;;;;1.52;1.05;;;5.90;99.90;;;;;;4103442;28;20031;-71
2022/02/04 16:57:06;;;;;;;3.08;1.85;;;5.90;99.90;;;;;;4116876;28;20556;-71
2022/02/04 16:59:07;;;;;;;2.92;1.75;;;5.90;99.90;;;;;;4121046;28;20381;-72
2022/02/04 17:01:08;;;;;;;2.88;2.05;;;5.90;99.90;;;;;;4117416;28;20038;-72
2022/02/04 17:03:10;;;;;;;3.38;2.13;;;6.00;99.90;;;;;;4118861;28;20054;-72
2022/02/04 17:05:11;;;;;;;;;;;5.90;99.90;;;;;;4117134;28;20035;-72